createdAt,value
2022-08-03T00:02:20.220Z,67.86
2022-08-03T00:04:48.018Z,68.75
2022-08-03T00:07:15.864Z,68.60
2022-08-03T00:09:44.086Z,68.55
2022-08-03T00:12:12.186Z,68.50
2022-08-03T00:14:40.017Z,68.50
2022-08-03T00:17:07.782Z,68.65
2022-08-03T00:19:35.553Z,68.88
2022-08-03T00:22:03.323Z,67.65
2022-08-03T00:24:31.488Z,67.86
2022-08-03T00:26:59.265Z,68.44
2022-08-03T00:29:27.331Z,68.06
2022-08-03T00:32:00.266Z,68.19
2022-08-03T00:34:57.248Z,69.26
2022-08-03T00:37:16.554Z,69.49
2022-08-03T00:39:46.352Z,69.62
2022-08-03T00:42:14.476Z,70.26
2022-08-03T00:44:43.988Z,70.12
2022-08-03T00:47:12.406Z,70.68
2022-08-03T00:49:41.088Z,71.20
2022-08-03T00:52:10.119Z,71.65
2022-08-03T00:54:38.794Z,72.05
2022-08-03T00:57:07.446Z,72.69
2022-08-03T00:59:35.424Z,73.06
2022-08-03T01:02:03.622Z,72.79
2022-08-03T01:04:31.794Z,72.26
2022-08-03T01:07:18.042Z,73.08
2022-08-03T01:09:48.801Z,72.68
2022-08-03T01:12:30.110Z,72.56
2022-08-03T01:14:58.080Z,72.72
2022-08-03T01:17:28.990Z,73.30
2022-08-03T01:20:00.765Z,73.37
2022-08-03T01:22:50.149Z,73.09
2022-08-03T01:25:36.569Z,73.52
2022-08-03T01:28:23.571Z,73.82
2022-08-03T01:30:53.883Z,74.52
2022-08-03T01:33:28.406Z,74.82
2022-08-03T01:35:56.267Z,75.24
2022-08-03T01:38:26.089Z,76.08
2022-08-03T01:40:57.446Z,75.96
2022-08-03T01:44:27.652Z,76.68
2022-08-03T01:46:20.301Z,77.14
2022-08-03T01:48:49.162Z,76.85
2022-08-03T01:51:19.623Z,77.01
2022-08-03T01:53:48.354Z,77.67
2022-08-03T01:56:16.731Z,77.91
2022-08-03T01:58:46.380Z,78.26
2022-08-03T02:01:16.176Z,78.12
2022-08-03T02:03:59.790Z,78.58
2022-08-03T02:07:02.189Z,78.50
2022-08-03T02:09:21.223Z,78.75
2022-08-03T02:11:49.980Z,78.87
2022-08-03T02:14:19.874Z,78.08
2022-08-03T02:16:48.836Z,78.79
2022-08-03T02:19:16.803Z,78.92
2022-08-03T02:21:56.316Z,78.57
2022-08-03T02:24:29.295Z,78.94
2022-08-03T02:26:58.406Z,78.82
2022-08-03T02:29:39.142Z,79.24
2022-08-03T02:32:14.713Z,79.27
2022-08-03T02:34:45.978Z,79.59
2022-08-03T02:37:15.337Z,80.23
2022-08-03T02:39:43.981Z,80.39
2022-08-03T02:42:14.581Z,80.63
2022-08-03T02:44:47.837Z,81.05
2022-08-03T02:47:16.331Z,81.57
2022-08-03T02:49:51.427Z,81.36
2022-08-03T02:52:24.209Z,80.88
2022-08-03T02:54:53.472Z,80.15
2022-08-03T02:57:22.138Z,80.17
2022-08-03T02:59:50.616Z,79.94
2022-08-03T03:02:19.405Z,79.53
2022-08-03T03:05:54.985Z,79.93
2022-08-03T03:07:51.490Z,79.60
2022-08-03T03:10:21.923Z,79.12
2022-08-03T03:12:55.854Z,79.25
2022-08-03T03:15:24.891Z,78.92
2022-08-03T03:17:53.742Z,79.11
2022-08-03T03:20:30.271Z,78.91
2022-08-03T03:23:00.400Z,78.49
2022-08-03T03:25:30.982Z,77.71
2022-08-03T03:27:59.990Z,76.23
2022-08-03T03:30:28.251Z,74.78
2022-08-03T03:32:57.423Z,73.11
2022-08-03T03:35:26.116Z,71.62
2022-08-03T03:37:54.204Z,69.77
2022-08-03T03:40:22.661Z,67.83
2022-08-03T03:42:50.946Z,66.90
2022-08-03T03:45:20.837Z,65.92
2022-08-03T03:47:49.542Z,65.03
2022-08-03T03:50:18.655Z,63.87
2022-08-03T03:52:46.592Z,62.92
2022-08-03T03:55:18.196Z,61.65
2022-08-03T03:57:46.878Z,60.32
2022-08-03T04:00:15.730Z,60.74
2022-08-03T04:02:43.896Z,61.71
2022-08-03T04:05:30.331Z,62.49
2022-08-03T04:08:16.541Z,62.99
2022-08-03T04:10:59.547Z,63.21
2022-08-03T04:13:29.435Z,63.97
2022-08-03T04:15:58.000Z,64.57
2022-08-03T04:18:27.702Z,64.87
2022-08-03T04:21:00.037Z,64.06
2022-08-03T04:23:29.121Z,62.91
2022-08-03T04:25:57.873Z,62.31
2022-08-03T04:28:30.652Z,62.26
2022-08-03T04:31:01.444Z,60.92
2022-08-03T04:33:32.492Z,60.83
2022-08-03T04:36:03.674Z,61.55
2022-08-03T04:38:33.085Z,61.28
2022-08-03T04:41:01.790Z,58.31
2022-08-03T04:43:31.209Z,54.76
2022-08-03T04:45:59.575Z,51.14
2022-08-03T04:48:27.787Z,50.92
2022-08-03T04:50:56.024Z,50.93
2022-08-03T04:53:24.023Z,51.21
2022-08-03T04:55:51.902Z,52.37
2022-08-03T04:58:19.788Z,53.03
2022-08-03T05:00:51.360Z,52.27
2022-08-03T05:03:24.365Z,49.18
2022-08-03T05:05:53.597Z,45.29
2022-08-03T05:08:46.296Z,43.79
2022-08-03T05:11:15.889Z,42.35
2022-08-03T05:13:44.389Z,42.98
2022-08-03T05:16:14.017Z,43.38
2022-08-03T05:18:42.370Z,43.12
2022-08-03T05:21:10.925Z,42.40
2022-08-03T05:23:38.936Z,42.67
2022-08-03T05:26:06.918Z,43.14
2022-08-03T05:28:34.780Z,43.42
2022-08-03T05:31:02.568Z,42.72
2022-08-03T05:33:30.426Z,42.83
2022-08-03T05:36:03.317Z,43.09
2022-08-03T05:38:34.058Z,43.97
2022-08-03T05:41:21.155Z,44.66
2022-08-03T05:43:52.512Z,44.64
2022-08-03T05:46:21.390Z,43.82
2022-08-03T05:48:49.551Z,42.15
2022-08-03T05:51:17.783Z,39.83
2022-08-03T05:53:45.620Z,38.16
2022-08-03T05:56:15.970Z,36.14
2022-08-03T05:58:45.873Z,35.16
2022-08-03T06:01:14.004Z,34.25
2022-08-03T06:03:41.918Z,33.01
2022-08-03T06:06:11.907Z,31.96
2022-08-03T06:08:40.698Z,31.21
2022-08-03T06:11:09.155Z,30.13
2022-08-03T06:13:37.333Z,29.56
2022-08-03T06:16:05.928Z,28.80
2022-08-03T06:18:33.741Z,29.80
2022-08-03T06:21:14.240Z,29.02
2022-08-03T06:23:53.237Z,27.83
2022-08-03T06:26:26.877Z,27.48
2022-08-03T06:28:55.272Z,26.68
2022-08-03T06:31:32.780Z,25.99
2022-08-03T06:34:32.439Z,25.29
2022-08-03T06:36:52.313Z,24.81
2022-08-03T06:39:23.239Z,24.62
2022-08-03T06:41:52.417Z,24.46
2022-08-03T06:44:20.878Z,24.33
2022-08-03T06:46:48.773Z,24.11
2022-08-03T06:49:16.806Z,25.94
2022-08-03T06:52:03.464Z,25.30
2022-08-03T06:54:33.200Z,23.86
2022-08-03T06:57:01.452Z,23.15
2022-08-03T07:00:06.314Z,22.89
2022-08-03T07:02:19.801Z,23.15
2022-08-03T07:04:49.262Z,23.14
2022-08-03T07:07:17.900Z,22.45
2022-08-03T07:09:56.609Z,22.93
2022-08-03T07:12:29.607Z,23.67
2022-08-03T07:15:02.954Z,23.32
2022-08-03T07:17:33.298Z,22.83
2022-08-03T07:20:02.613Z,22.32
2022-08-03T07:22:30.525Z,22.35
2022-08-03T07:24:58.534Z,22.20
2022-08-03T07:27:27.347Z,23.20
2022-08-03T07:29:55.751Z,23.78
2022-08-03T07:32:24.139Z,23.10
2022-08-03T07:34:53.807Z,22.64
2022-08-03T07:37:23.664Z,22.64
2022-08-03T07:39:52.759Z,23.72
2022-08-03T07:42:20.576Z,24.45
2022-08-03T07:44:48.601Z,24.86
2022-08-03T07:47:22.734Z,24.74
2022-08-03T07:49:51.287Z,23.45
2022-08-03T07:52:38.010Z,22.77
2022-08-03T07:55:06.859Z,22.53
2022-08-03T07:57:37.412Z,22.54
2022-08-03T08:00:07.032Z,22.44
2022-08-03T08:02:41.234Z,21.72
2022-08-03T08:05:11.028Z,21.22
2022-08-03T08:07:39.845Z,21.44
2022-08-03T08:10:10.204Z,22.00
2022-08-03T08:12:39.219Z,22.28
2022-08-03T08:15:07.526Z,22.49
2022-08-03T08:17:55.569Z,22.54
2022-08-03T08:20:30.563Z,21.88
2022-08-03T08:23:20.854Z,21.85
2022-08-03T08:25:52.763Z,21.58
2022-08-03T08:28:31.452Z,24.80
2022-08-03T08:31:01.787Z,25.17
2022-08-03T08:33:47.994Z,24.63
2022-08-03T08:36:17.464Z,23.76
2022-08-03T08:38:45.343Z,23.15
2022-08-03T08:41:14.040Z,23.24
2022-08-03T08:43:42.332Z,22.93
2022-08-03T08:46:22.755Z,22.55
2022-08-03T08:48:52.399Z,24.21
2022-08-03T08:51:21.721Z,25.02
2022-08-03T08:53:53.683Z,26.34
2022-08-03T08:56:25.518Z,26.32
2022-08-03T08:58:56.974Z,26.18
2022-08-03T09:01:25.134Z,25.59
2022-08-03T09:03:54.328Z,25.01
2022-08-03T09:06:23.375Z,23.61
2022-08-03T09:08:51.335Z,22.31
2022-08-03T09:12:00.852Z,21.66
2022-08-03T09:14:35.331Z,21.49
2022-08-03T09:17:01.909Z,21.15
2022-08-03T09:19:31.333Z,20.55
2022-08-03T09:22:15.681Z,20.58
2022-08-03T09:25:22.736Z,20.41
2022-08-03T09:27:48.576Z,20.61
2022-08-03T09:30:19.072Z,20.73
2022-08-03T09:33:08.416Z,20.95
2022-08-03T09:35:55.304Z,20.87
2022-08-03T09:38:31.138Z,21.15
2022-08-03T09:41:00.919Z,21.44
2022-08-03T09:43:45.831Z,21.95
2022-08-03T09:46:13.890Z,22.91
2022-08-03T09:48:41.865Z,22.82
2022-08-03T09:51:13.479Z,21.84
2022-08-03T09:54:00.496Z,20.88
2022-08-03T09:56:39.123Z,20.77
2022-08-03T09:59:06.981Z,21.11
2022-08-03T10:01:35.776Z,21.16
2022-08-03T10:04:05.113Z,21.05
2022-08-03T10:06:33.348Z,21.53
2022-08-03T10:09:08.872Z,21.85
2022-08-03T10:11:41.738Z,21.70
2022-08-03T10:14:18.936Z,21.84
2022-08-03T10:16:47.804Z,21.59
2022-08-03T10:19:15.956Z,21.64
2022-08-03T10:21:53.750Z,21.49
2022-08-03T10:24:24.999Z,21.53
2022-08-03T10:26:53.775Z,21.48
2022-08-03T10:29:24.895Z,20.79
2022-08-03T10:31:57.733Z,20.65
2022-08-03T10:34:27.512Z,20.87
2022-08-03T10:36:58.266Z,20.60
2022-08-03T10:39:28.638Z,20.34
2022-08-03T10:41:59.808Z,20.13
2022-08-03T10:44:30.212Z,19.76
2022-08-03T10:46:58.639Z,19.64
2022-08-03T10:49:34.403Z,19.85
2022-08-03T10:52:13.015Z,20.54
2022-08-03T10:55:11.117Z,20.64
2022-08-03T10:57:43.016Z,19.89
2022-08-03T11:00:16.001Z,19.64
2022-08-03T11:03:02.252Z,20.09
2022-08-03T11:05:31.296Z,19.91
2022-08-03T11:08:17.715Z,20.37
2022-08-03T11:10:45.855Z,20.59
2022-08-03T11:13:17.880Z,20.39
2022-08-03T11:15:46.829Z,20.29
2022-08-03T11:18:15.359Z,20.24
2022-08-03T11:20:46.589Z,19.71
2022-08-03T11:23:16.104Z,18.64
2022-08-03T11:26:02.481Z,18.99
2022-08-03T11:28:30.886Z,18.47
2022-08-03T11:31:46.714Z,18.60
2022-08-03T11:34:07.350Z,18.90
2022-08-03T11:36:53.607Z,19.13
2022-08-03T11:39:21.467Z,19.32
2022-08-03T11:41:49.253Z,19.27
2022-08-03T11:44:35.997Z,19.69
2022-08-03T11:47:03.940Z,20.08
2022-08-03T11:49:31.866Z,20.34
2022-08-03T11:51:59.677Z,20.86
2022-08-03T11:54:27.720Z,20.97
2022-08-03T11:56:56.023Z,20.59
2022-08-03T11:59:42.022Z,20.43
2022-08-03T12:02:11.695Z,19.99
2022-08-03T12:04:58.373Z,20.28
2022-08-03T12:08:03.212Z,20.71
2022-08-03T12:10:18.036Z,20.94
2022-08-03T12:12:46.891Z,21.18
2022-08-03T12:15:14.811Z,21.18
2022-08-03T12:17:42.680Z,21.46
2022-08-03T12:20:20.891Z,21.13
2022-08-03T12:23:06.259Z,20.81
2022-08-03T12:25:38.748Z,20.45
2022-08-03T12:28:37.413Z,19.89
2022-08-03T12:31:09.262Z,19.54
2022-08-03T12:33:56.865Z,19.72
2022-08-03T12:36:24.866Z,20.33
2022-08-03T12:38:57.755Z,20.47
2022-08-03T12:41:34.049Z,20.26
2022-08-03T12:44:06.375Z,21.06
2022-08-03T12:46:35.708Z,22.30
2022-08-03T12:49:07.754Z,22.88
2022-08-03T12:51:37.079Z,22.89
2022-08-03T12:54:05.565Z,23.22
2022-08-03T12:56:33.450Z,23.46
2022-08-03T12:59:02.036Z,23.21
2022-08-03T13:01:36.714Z,23.11
2022-08-03T13:04:06.181Z,23.72
2022-08-03T13:06:34.124Z,24.42
2022-08-03T13:09:05.962Z,24.06
2022-08-03T13:11:55.497Z,23.39
2022-08-03T13:14:23.614Z,23.24
2022-08-03T13:16:51.935Z,23.27
2022-08-03T13:19:19.871Z,23.42
2022-08-03T13:22:01.690Z,23.65
2022-08-03T13:24:33.301Z,23.47
2022-08-03T13:27:22.087Z,23.37
2022-08-03T13:29:50.660Z,23.57
2022-08-03T13:32:18.501Z,23.79
2022-08-03T13:34:46.302Z,23.10
2022-08-03T13:37:14.758Z,22.69
2022-08-03T13:39:58.471Z,22.24
2022-08-03T13:42:29.214Z,22.39
2022-08-03T13:44:57.299Z,23.41
2022-08-03T13:47:25.199Z,23.54
2022-08-03T13:50:00.497Z,23.74
2022-08-03T13:52:31.753Z,23.81
2022-08-03T13:55:00.379Z,24.15
2022-08-03T13:58:05.418Z,24.31
2022-08-03T14:00:28.121Z,24.13
2022-08-03T14:03:06.675Z,24.40
2022-08-03T14:05:41.048Z,24.90
2022-08-03T14:08:09.194Z,25.02
2022-08-03T14:10:38.315Z,25.46
2022-08-03T14:13:06.519Z,25.76
2022-08-03T14:15:37.758Z,25.65
2022-08-03T14:18:12.794Z,25.88
2022-08-03T14:20:47.777Z,26.03
2022-08-03T14:23:18.732Z,26.29
2022-08-03T14:25:52.526Z,26.28
2022-08-03T14:28:24.833Z,25.58
2022-08-03T14:30:53.908Z,25.22
2022-08-03T14:33:22.295Z,25.28
2022-08-03T14:35:50.887Z,25.60
2022-08-03T14:38:19.585Z,25.08
2022-08-03T14:40:48.179Z,24.82
2022-08-03T14:43:18.141Z,24.33
2022-08-03T14:45:46.239Z,23.79
2022-08-03T14:49:02.573Z,23.14
2022-08-03T14:51:02.645Z,22.10
2022-08-03T14:53:30.461Z,22.08
2022-08-03T14:55:58.706Z,22.83
2022-08-03T14:58:27.019Z,23.15
2022-08-03T15:00:55.769Z,23.22
2022-08-03T15:03:25.091Z,22.87
2022-08-03T15:05:53.938Z,21.91
2022-08-03T15:08:22.812Z,21.61
2022-08-03T15:10:50.928Z,21.67
2022-08-03T15:13:19.814Z,21.79
2022-08-03T15:15:48.293Z,21.60
2022-08-03T15:18:16.058Z,22.48
2022-08-03T15:20:46.381Z,23.14
2022-08-03T15:23:15.447Z,22.93
2022-08-03T15:26:31.646Z,23.05
2022-08-03T15:28:32.358Z,22.88
2022-08-03T15:31:00.473Z,22.08
2022-08-03T15:33:28.864Z,22.62
2022-08-03T15:35:56.738Z,23.72
2022-08-03T15:38:25.743Z,24.03
2022-08-03T15:40:55.101Z,23.95
2022-08-03T15:43:23.292Z,23.72
2022-08-03T15:46:26.531Z,23.81
2022-08-03T15:48:40.394Z,23.85
2022-08-03T15:51:08.582Z,24.03
2022-08-03T15:53:36.741Z,24.06
2022-08-03T15:56:10.033Z,23.16
2022-08-03T15:59:10.514Z,23.22
2022-08-03T16:01:28.594Z,23.34
2022-08-03T16:03:56.658Z,22.77
2022-08-03T16:06:34.625Z,22.57
2022-08-03T16:09:04.209Z,23.09
2022-08-03T16:11:32.407Z,23.71
2022-08-03T16:14:12.904Z,23.51
2022-08-03T16:16:48.693Z,23.43
2022-08-03T16:19:16.563Z,23.48
2022-08-03T16:21:48.284Z,23.65
2022-08-03T16:24:17.325Z,23.82
2022-08-03T16:26:47.910Z,24.07
2022-08-03T16:29:23.358Z,24.42
2022-08-03T16:31:52.643Z,24.47
2022-08-03T16:34:21.252Z,24.24
2022-08-03T16:36:49.578Z,24.57
2022-08-03T16:39:17.425Z,25.09
2022-08-03T16:41:54.244Z,25.40
2022-08-03T16:44:30.746Z,25.77
2022-08-03T16:46:59.163Z,25.85
2022-08-03T16:49:55.030Z,26.04
2022-08-03T16:52:16.675Z,26.25
2022-08-03T16:54:52.674Z,26.55
2022-08-03T16:57:56.306Z,26.75
2022-08-03T17:00:12.198Z,26.92
2022-08-03T17:03:01.021Z,27.17
2022-08-03T17:05:43.824Z,28.03
2022-08-03T17:08:15.925Z,28.32
2022-08-03T17:10:44.578Z,28.77
2022-08-03T17:13:22.066Z,28.79
2022-08-03T17:16:01.550Z,29.11
2022-08-03T17:18:35.114Z,29.59
2022-08-03T17:21:06.137Z,29.98
2022-08-03T17:23:44.438Z,30.38
2022-08-03T17:26:21.155Z,30.45
2022-08-03T17:28:57.996Z,30.71
2022-08-03T17:31:31.109Z,31.14
2022-08-03T17:34:01.645Z,31.46
2022-08-03T17:36:54.064Z,31.73
2022-08-03T17:39:30.859Z,31.77
2022-08-03T17:42:31.003Z,32.06
2022-08-03T17:44:56.381Z,32.47
2022-08-03T17:47:29.275Z,32.84
2022-08-03T17:50:24.148Z,32.96
2022-08-03T17:53:15.681Z,33.36
2022-08-03T17:56:05.549Z,33.67
2022-08-03T17:58:42.336Z,34.00
2022-08-03T18:02:02.064Z,33.87
2022-08-03T18:04:30.219Z,34.40
2022-08-03T18:07:00.040Z,34.66
2022-08-03T18:10:03.508Z,34.85
2022-08-03T18:12:27.555Z,35.04
2022-08-03T18:15:01.614Z,34.88
2022-08-03T18:17:55.788Z,34.90
2022-08-03T18:20:31.177Z,35.27
2022-08-03T18:23:04.456Z,35.34
2022-08-03T18:25:45.694Z,35.68
2022-08-03T18:28:18.947Z,35.88
2022-08-03T18:30:54.101Z,36.28
2022-08-03T18:34:19.923Z,35.95
2022-08-03T18:36:18.163Z,35.97
2022-08-03T18:38:51.935Z,35.90
2022-08-03T18:41:32.384Z,36.38
2022-08-03T18:44:06.659Z,36.36
2022-08-03T18:46:48.416Z,36.35
2022-08-03T18:49:35.287Z,36.45
2022-08-03T18:52:16.019Z,36.80
2022-08-03T18:55:01.163Z,36.87
2022-08-03T18:57:40.575Z,36.96
2022-08-03T19:00:14.096Z,37.12
2022-08-03T19:02:49.065Z,37.22
2022-08-03T19:05:19.482Z,37.43
2022-08-03T19:08:07.479Z,37.38
2022-08-03T19:10:44.198Z,37.31
2022-08-03T19:13:35.884Z,37.29
2022-08-03T19:16:08.665Z,37.60
2022-08-03T19:18:37.793Z,37.46
2022-08-03T19:21:15.626Z,37.60
2022-08-03T19:23:46.123Z,37.67
2022-08-03T19:26:30.614Z,37.87
2022-08-03T19:28:59.445Z,37.77
2022-08-03T19:31:30.835Z,38.23
2022-08-03T19:34:00.515Z,38.56
2022-08-03T19:36:29.884Z,38.68
2022-08-03T19:38:58.370Z,38.97
2022-08-03T19:41:31.204Z,39.23
2022-08-03T19:44:12.373Z,39.30
2022-08-03T19:46:58.216Z,39.58
2022-08-03T19:50:02.797Z,39.58
2022-08-03T19:52:16.821Z,40.25
2022-08-03T19:57:40.973Z,41.30
2022-08-03T20:00:13.921Z,41.72
2022-08-03T20:02:41.945Z,41.92
2022-08-03T20:05:14.825Z,42.15
2022-08-03T20:07:47.683Z,42.30
2022-08-03T20:10:17.207Z,42.94
2022-08-03T20:12:45.798Z,42.89
2022-08-03T20:15:13.719Z,43.41
2022-08-03T20:17:56.854Z,43.57
2022-08-03T20:20:31.087Z,43.79
2022-08-03T20:23:00.317Z,44.40
2022-08-03T20:25:37.691Z,44.09
2022-08-03T20:28:13.791Z,44.78
2022-08-03T20:30:47.369Z,45.00
2022-08-03T20:33:18.388Z,44.68
2022-08-03T20:35:49.618Z,44.93
2022-08-03T20:38:18.823Z,45.24
2022-08-03T20:40:47.465Z,45.68
2022-08-03T20:43:15.971Z,45.61
2022-08-03T20:45:59.366Z,45.70
2022-08-03T20:48:34.726Z,45.58
2022-08-03T20:51:04.968Z,45.95
2022-08-03T20:53:59.840Z,46.36
2022-08-03T20:56:32.113Z,46.54
2022-08-03T20:59:03.171Z,47.42
2022-08-03T21:01:36.528Z,47.28
2022-08-03T21:04:06.917Z,47.46
2022-08-03T21:06:38.739Z,48.26
2022-08-03T21:09:08.960Z,47.98
2022-08-03T21:11:43.446Z,47.91
2022-08-03T21:13:11.155Z,40.64
2022-08-03T21:14:18.093Z,48.04
2022-08-03T21:16:46.465Z,48.48
2022-08-03T21:19:15.194Z,48.37
2022-08-03T21:21:44.666Z,48.16
2022-08-03T21:24:13.262Z,48.27
2022-08-03T21:26:42.230Z,48.45
2022-08-03T21:29:14.272Z,48.30
2022-08-03T21:31:43.422Z,48.03
2022-08-03T21:34:11.563Z,48.63
2022-08-03T21:36:39.319Z,49.25
2022-08-03T21:39:08.604Z,49.36
2022-08-03T21:41:38.380Z,49.01
2022-08-03T21:44:06.839Z,49.42
2022-08-03T21:46:39.264Z,49.61
2022-08-03T21:50:05.660Z,49.18
2022-08-03T21:51:59.816Z,49.95
2022-08-03T21:54:33.698Z,50.55
2022-08-03T21:57:03.938Z,50.26
2022-08-03T21:59:35.327Z,50.53
2022-08-03T22:02:04.209Z,51.15
2022-08-03T22:04:53.018Z,51.25
2022-08-03T22:07:25.161Z,51.62
2022-08-03T22:09:55.175Z,51.57
2022-08-03T22:12:24.311Z,51.86
2022-08-03T22:15:00.920Z,51.77
2022-08-03T22:17:53.824Z,51.66
2022-08-03T22:20:21.982Z,52.36
2022-08-03T22:22:56.045Z,51.46
2022-08-03T22:25:27.723Z,51.36
2022-08-03T22:27:56.017Z,52.32
2022-08-03T22:30:24.083Z,52.52
2022-08-03T22:32:53.290Z,52.51
2022-08-03T22:35:21.840Z,51.84
2022-08-03T22:37:51.761Z,51.68
2022-08-03T22:40:20.834Z,51.84
2022-08-03T22:42:52.333Z,52.36
2022-08-03T22:46:07.036Z,52.03
2022-08-03T22:48:08.738Z,52.14
2022-08-03T22:50:37.103Z,52.55
2022-08-03T22:53:06.935Z,52.15
2022-08-03T22:55:34.711Z,52.04
2022-08-03T22:58:02.489Z,52.58
2022-08-03T23:00:30.511Z,52.94
2022-08-03T23:03:00.583Z,52.80
2022-08-03T23:06:01.865Z,52.54
2022-08-03T23:08:21.047Z,52.88
2022-08-03T23:10:50.126Z,53.87
2022-08-03T23:13:18.588Z,54.00
2022-08-03T23:15:52.061Z,54.22
2022-08-03T23:18:22.201Z,54.18
2022-08-03T23:20:51.653Z,53.99
2022-08-03T23:23:20.629Z,54.17
2022-08-03T23:25:50.694Z,54.16
2022-08-03T23:28:19.223Z,54.15
2022-08-03T23:30:49.514Z,54.67
2022-08-03T23:33:18.291Z,55.07
2022-08-03T23:36:28.844Z,54.99
2022-08-03T23:38:48.811Z,55.83
2022-08-03T23:41:17.625Z,56.13
2022-08-03T23:43:52.010Z,56.61
2022-08-03T23:46:22.583Z,56.92
2022-08-03T23:48:51.117Z,57.20
2022-08-03T23:51:34.254Z,56.24
2022-08-03T23:54:11.329Z,56.83
2022-08-03T23:56:46.053Z,56.84
2022-08-03T23:59:32.438Z,57.27
